Nashua, Iowa
Current Conditions -  °F | °C
As of 9:15 AM on Thursday 18 Dec 2014 (Local Time) from KCCY Reporting Station
Haze Haze  
Wind Chill: 18°   Ceiling: 900
Heat Index: 18°   Visibility: 6mi
Dew Point: 14°   Wind: 0mph
Humidity: 86%   Direction: NA
Pressure: 30.3"   Gusts: NA
Location:  42.95°N, 92.54°W
Report Text: KCCY 181515Z AUTO 00000KT 6SM BR OVC009 M08/M10 A3030 RMK AO2
Loading
Personal Weather Stations






























Interactive Weather Map New forecast layout! Learn more

10-Day Weather Forecast

Advertisements
Track Severe Weather on mobile